createdAt,value
2017-05-12T00:00:02.690Z,998.3
2017-05-12T00:05:02.992Z,998.28
2017-05-12T00:10:02.670Z,998.33
2017-05-12T00:15:03.308Z,998.35
2017-05-12T00:20:17.915Z,998.31
2017-05-12T00:25:03.514Z,998.25
2017-05-12T00:30:03.167Z,998.18
2017-05-12T00:35:05.809Z,998.17
2017-05-12T00:40:03.785Z,998.18
2017-05-12T00:45:03.451Z,998.15
2017-05-12T00:50:03.002Z,998.12
2017-05-12T00:55:03.684Z,998.09
2017-05-12T01:00:03.252Z,998.16
2017-05-12T01:05:03.025Z,998.09
2017-05-12T01:10:03.637Z,998.16
2017-05-12T01:15:03.202Z,998.1
2017-05-12T01:20:02.792Z,998.22
2017-05-12T01:25:18.472Z,998.19
2017-05-12T01:30:02.997Z,998.24
2017-05-12T01:35:05.649Z,998.19
2017-05-12T01:40:03.228Z,998.26
2017-05-12T01:45:02.877Z,998.21
2017-05-12T01:50:02.702Z,998.2
2017-05-12T01:55:03.571Z,998.26
2017-05-12T02:00:03.150Z,998.24
2017-05-12T02:05:02.740Z,998.22
2017-05-12T02:10:03.458Z,998.21
2017-05-12T02:15:03.193Z,998.24
2017-05-12T02:20:02.996Z,998.23
2017-05-12T02:25:03.617Z,998.26
2017-05-12T02:30:03.545Z,998.29
2017-05-12T02:35:03.312Z,998.27
2017-05-12T02:40:03.007Z,998.28
2017-05-12T02:45:03.663Z,998.32
2017-05-12T02:50:03.276Z,998.3
2017-05-12T02:55:03.018Z,998.24
2017-05-12T03:00:02.718Z,998.18
2017-05-12T03:05:03.340Z,998.16
2017-05-12T03:10:02.976Z,998.18
2017-05-12T03:15:02.699Z,998.18
2017-05-12T03:20:03.384Z,998.1
2017-05-12T03:25:03.148Z,998.11
2017-05-12T03:30:02.767Z,998.24
2017-05-12T03:35:03.590Z,998.27
2017-05-12T03:40:03.242Z,998.35
2017-05-12T03:45:02.814Z,998.33
2017-05-12T03:50:03.479Z,998.34
2017-05-12T03:55:03.114Z,998.4
2017-05-12T04:00:02.637Z,998.4
2017-05-12T04:05:03.401Z,998.4
2017-05-12T04:10:03.374Z,998.47
2017-05-12T04:15:02.976Z,998.44
2017-05-12T04:20:03.589Z,998.49
2017-05-12T04:25:03.217Z,998.53
2017-05-12T04:30:03.392Z,998.55
2017-05-12T04:35:03.139Z,998.59
2017-05-12T04:40:02.864Z,998.58
2017-05-12T04:45:03.589Z,998.63
2017-05-12T04:50:03.363Z,998.65
2017-05-12T04:55:03.110Z,998.64
2017-05-12T05:00:02.760Z,998.7
2017-05-12T05:05:03.366Z,998.81
2017-05-12T05:10:03.129Z,998.77
2017-05-12T05:15:02.696Z,998.85
2017-05-12T05:20:03.438Z,998.89
2017-05-12T05:25:03.215Z,998.96
2017-05-12T05:30:02.921Z,999.03
2017-05-12T05:35:03.516Z,999.07
2017-05-12T05:40:03.333Z,999.11
2017-05-12T05:45:03.071Z,999.11
2017-05-12T05:50:02.755Z,999.22
2017-05-12T05:55:03.383Z,999.27
2017-05-12T06:00:02.989Z,999.35
2017-05-12T06:05:02.719Z,999.38
2017-05-12T06:10:03.523Z,999.43
2017-05-12T06:15:03.162Z,999.47
2017-05-12T06:20:02.732Z,999.42
2017-05-12T06:25:03.409Z,999.47
2017-05-12T06:30:03.039Z,999.5
2017-05-12T06:35:02.786Z,999.5
2017-05-12T06:40:03.628Z,999.58
2017-05-12T06:45:03.311Z,999.55
2017-05-12T06:50:02.876Z,999.7
2017-05-12T06:55:03.547Z,999.71
2017-05-12T07:00:03.305Z,999.8
2017-05-12T07:05:02.946Z,999.88
2017-05-12T07:10:03.688Z,999.88
2017-05-12T07:15:03.429Z,999.92
2017-05-12T07:20:03.031Z,999.94
2017-05-12T07:25:02.659Z,1000.01
2017-05-12T07:30:03.403Z,1000.06
2017-05-12T07:35:03.099Z,1000.17
2017-05-12T07:40:02.795Z,1000.19
2017-05-12T07:45:03.527Z,1000.33
2017-05-12T07:50:03.325Z,1000.28
2017-05-12T07:55:02.888Z,1000.29
2017-05-12T08:00:03.612Z,1000.33
2017-05-12T08:05:03.219Z,1000.43
2017-05-12T08:10:02.891Z,1000.43
2017-05-12T08:15:03.583Z,1000.45
2017-05-12T08:20:03.265Z,1000.59
2017-05-12T08:25:03.008Z,1000.63
2017-05-12T08:30:02.787Z,1000.51
2017-05-12T08:35:03.441Z,1000.46
2017-05-12T08:40:03.208Z,1000.54
2017-05-12T08:45:02.891Z,1000.47
2017-05-12T08:50:03.650Z,1000.53
2017-05-12T08:55:03.479Z,1000.59
2017-05-12T09:00:03.066Z,1000.62
2017-05-12T09:05:02.686Z,1000.7
2017-05-12T09:10:03.399Z,1000.69
2017-05-12T09:15:03.098Z,1000.79
2017-05-12T09:20:02.908Z,1000.75
2017-05-12T09:25:03.661Z,1000.87
2017-05-12T09:30:03.226Z,1001.02
2017-05-12T09:35:02.834Z,1000.94
2017-05-12T09:40:03.488Z,1000.86
2017-05-12T09:45:03.138Z,1000.94
2017-05-12T09:50:02.914Z,1001.03
2017-05-12T09:55:03.621Z,1001.07
2017-05-12T10:00:03.208Z,1001.03
2017-05-12T10:05:02.946Z,1001.06
2017-05-12T10:10:03.538Z,1001.09
2017-05-12T10:15:03.153Z,1000.96
2017-05-12T10:20:02.943Z,1001.04
2017-05-12T10:25:03.605Z,1001.05
2017-05-12T10:30:03.360Z,1000.94
2017-05-12T10:35:03.051Z,1001
2017-05-12T10:40:03.266Z,1000.93
2017-05-12T10:45:02.924Z,1000.98
2017-05-12T10:50:02.684Z,1000.97
2017-05-12T10:55:03.291Z,1000.97
2017-05-12T11:00:03.161Z,1001.13
2017-05-12T11:05:02.866Z,1001.16
2017-05-12T11:10:03.036Z,1001.18
2017-05-12T11:15:03.298Z,1001.2
2017-05-12T11:20:03.051Z,1001.14
2017-05-12T11:25:02.714Z,1001.1
2017-05-12T11:30:02.875Z,1001.14
2017-05-12T11:35:02.750Z,1001.09
2017-05-12T11:40:02.837Z,1001.14
2017-05-12T11:45:02.929Z,1001.16
2017-05-12T11:50:02.716Z,1001.1
2017-05-12T11:55:03.579Z,1001.15
2017-05-12T12:00:02.744Z,1001.09
2017-05-12T12:05:03.584Z,1001.15
2017-05-12T12:10:03.216Z,1001.2
2017-05-12T12:15:03.776Z,1001.21
2017-05-12T12:20:03.008Z,1001.2
2017-05-12T12:25:03.387Z,1001.34
2017-05-12T12:30:02.778Z,1001.26
2017-05-12T12:35:02.812Z,1001.15
2017-05-12T12:40:02.965Z,1001.15
2017-05-12T12:45:03.405Z,1001.12
2017-05-12T12:50:03.623Z,1001.19
2017-05-12T12:55:02.916Z,1001.16
2017-05-12T13:00:03.192Z,1001.2
2017-05-12T13:05:02.964Z,1001.21
2017-05-12T13:10:03.653Z,1001.23
2017-05-12T13:15:03.181Z,1001.31
2017-05-12T13:20:03.124Z,1001.26
2017-05-12T13:25:03.652Z,1001.31
2017-05-12T13:30:03.600Z,1001.31
2017-05-12T13:35:03.656Z,1001.3
2017-05-12T13:40:02.664Z,1001.28
2017-05-12T13:45:02.970Z,1001.3
2017-05-12T13:50:03.216Z,1001.29
2017-05-12T13:55:03.160Z,1001.22
2017-05-12T14:00:03.135Z,1001.03
2017-05-12T14:05:03.450Z,1001.04
2017-05-12T14:10:03.021Z,1001.09
2017-05-12T14:15:02.987Z,1001.04
2017-05-12T14:20:03.499Z,1001.07
2017-05-12T14:25:03.092Z,1000.95
2017-05-12T14:30:03.482Z,1000.95
2017-05-12T14:35:03.000Z,1000.98
2017-05-12T14:40:03.233Z,1000.97
2017-05-12T14:45:03.552Z,1000.94
2017-05-12T14:50:03.405Z,1000.94
2017-05-12T14:55:03.267Z,1001.06
2017-05-12T15:00:03.335Z,1001.05
2017-05-12T15:05:03.069Z,1001.16
2017-05-12T15:10:03.434Z,1001.1
2017-05-12T15:15:02.807Z,1001.23
2017-05-12T15:20:03.184Z,1001.25
2017-05-12T15:25:03.608Z,1001.24
2017-05-12T15:30:03.517Z,1001.32
2017-05-12T15:35:03.089Z,1001.35
2017-05-12T15:40:02.955Z,1001.43
2017-05-12T15:45:03.421Z,1001.43
2017-05-12T15:50:03.379Z,1001.5
2017-05-12T15:55:03.611Z,1001.49
2017-05-12T16:00:03.280Z,1001.52
2017-05-12T16:05:02.712Z,1001.57
2017-05-12T16:10:02.783Z,1001.6
2017-05-12T16:15:03.546Z,1001.61
2017-05-12T16:20:03.331Z,1001.64
2017-05-12T16:25:03.257Z,1001.69
2017-05-12T16:30:03.286Z,1001.75
2017-05-12T16:35:02.838Z,1001.7
2017-05-12T16:40:03.576Z,1001.64
2017-05-12T16:45:03.274Z,1001.65
2017-05-12T16:50:02.961Z,1001.63
2017-05-12T16:55:03.567Z,1001.71
2017-05-12T17:00:03.272Z,1001.68
2017-05-12T17:05:02.890Z,1001.76
2017-05-12T17:10:03.621Z,1001.74
2017-05-12T17:15:03.207Z,1001.83
2017-05-12T17:20:02.823Z,1001.81
2017-05-12T17:25:03.394Z,1001.82
2017-05-12T17:30:03.206Z,1001.92
2017-05-12T17:35:02.832Z,1001.96
2017-05-12T17:40:03.632Z,1002.11
2017-05-12T17:45:03.279Z,1002.14
2017-05-12T17:50:02.884Z,1002.2
2017-05-12T17:55:03.637Z,1002.21
2017-05-12T18:00:03.321Z,1002.31
2017-05-12T18:05:02.913Z,1002.34
2017-05-12T18:10:03.589Z,1002.4
2017-05-12T18:15:03.405Z,1002.38
2017-05-12T18:20:03.246Z,1002.44
2017-05-12T18:25:03.308Z,1002.5
2017-05-12T18:30:03.047Z,1002.55
2017-05-12T18:35:02.860Z,1002.63
2017-05-12T18:40:02.766Z,1002.71
2017-05-12T18:45:03.639Z,1002.77
2017-05-12T18:50:02.804Z,1002.77
2017-05-12T18:55:02.719Z,1002.83
2017-05-12T19:00:03.027Z,1002.89
2017-05-12T19:05:02.798Z,1002.99
2017-05-12T19:10:02.711Z,1003.11
2017-05-12T19:15:03.338Z,1003.1
2017-05-12T19:20:03.024Z,1003.14
2017-05-12T19:25:02.716Z,1003.12
2017-05-12T19:30:03.497Z,1003.22
2017-05-12T19:35:03.315Z,1003.36
2017-05-12T19:40:03.286Z,1003.51
2017-05-12T19:45:03.107Z,1003.64
2017-05-12T19:50:02.733Z,1003.69
2017-05-12T19:55:03.659Z,1003.71
2017-05-12T20:00:03.297Z,1003.82
2017-05-12T20:05:02.990Z,1003.91
2017-05-12T20:10:02.793Z,1004.04
2017-05-12T20:15:03.576Z,1004.24
2017-05-12T20:20:03.263Z,1004.49
2017-05-12T20:25:02.977Z,1004.48
2017-05-12T20:30:02.681Z,1004.53
2017-05-12T20:35:03.285Z,1004.64
2017-05-12T20:40:02.905Z,1004.76
2017-05-12T20:45:03.566Z,1004.97
2017-05-12T20:50:03.201Z,1005.15
2017-05-12T20:55:02.898Z,1005.39
2017-05-12T21:00:03.723Z,1005.57
2017-05-12T21:05:03.318Z,1005.96
2017-05-12T21:10:03.067Z,1006.07
2017-05-12T21:15:03.606Z,1006.11
2017-05-12T21:20:03.333Z,1006.25
2017-05-12T21:25:02.959Z,1006.2
2017-05-12T21:30:02.937Z,1005.97
2017-05-12T21:35:02.717Z,1005.91
2017-05-12T21:40:03.439Z,1006.02
2017-05-12T21:45:03.151Z,1006.01
2017-05-12T21:50:02.883Z,1005.8
2017-05-12T21:55:03.579Z,1005.79
2017-05-12T22:00:03.303Z,1005.54
2017-05-12T22:05:02.927Z,1005.2
2017-05-12T22:10:02.707Z,1005.16
2017-05-12T22:15:03.394Z,1005.15
2017-05-12T22:20:03.249Z,1005.14
2017-05-12T22:25:02.949Z,1005.2
2017-05-12T22:30:34.625Z,1005.22
2017-05-12T22:35:03.291Z,1005.32
2017-05-12T22:40:03.116Z,1005.29
2017-05-12T22:45:02.873Z,1005.26
2017-05-12T22:50:03.528Z,1005.36
2017-05-12T22:55:03.041Z,1005.4
2017-05-12T23:00:02.744Z,1005.35
2017-05-12T23:05:03.513Z,1005.38
2017-05-12T23:10:03.432Z,1005.5
2017-05-12T23:15:03.158Z,1005.51
2017-05-12T23:20:02.893Z,1005.5
2017-05-12T23:25:03.715Z,1005.48
2017-05-12T23:30:03.291Z,1005.48
2017-05-12T23:35:03.062Z,1005.52
2017-05-12T23:40:02.708Z,1005.62
2017-05-12T23:45:03.479Z,1005.58
2017-05-12T23:50:03.272Z,1005.59
2017-05-12T23:55:02.964Z,1005.65
